sensor_id;sensor_type;location;lat;lon;timestamp;pressure;altitude;pressure_sealevel;temperature;humidity
52653;BME280;39353;42.864;12.014;2023-03-21T00:00:01;97649.29;;;23.02;50.12
52653;BME280;39353;42.864;12.014;2023-03-21T00:02:28;97653.23;;;23.00;50.16
52653;BME280;39353;42.864;12.014;2023-03-21T00:04:55;97650.90;;;22.99;50.15
52653;BME280;39353;42.864;12.014;2023-03-21T00:07:22;97652.32;;;22.97;50.15
52653;BME280;39353;42.864;12.014;2023-03-21T00:10:04;97651.77;;;22.94;50.23
52653;BME280;39353;42.864;12.014;2023-03-21T00:12:31;97651.08;;;22.93;50.11
52653;BME280;39353;42.864;12.014;2023-03-21T00:15:17;97649.62;;;22.91;50.16
52653;BME280;39353;42.864;12.014;2023-03-21T00:17:59;97642.64;;;22.89;50.15
52653;BME280;39353;42.864;12.014;2023-03-21T00:20:44;97640.31;;;22.88;50.18
52653;BME280;39353;42.864;12.014;2023-03-21T00:23:12;97640.75;;;22.86;50.20
52653;BME280;39353;42.864;12.014;2023-03-21T00:25:39;97635.85;;;22.85;50.21
52653;BME280;39353;42.864;12.014;2023-03-21T00:28:20;97635.75;;;22.83;50.20
52653;BME280;39353;42.864;12.014;2023-03-21T00:31:03;97632.92;;;22.82;50.26
52653;BME280;39353;42.864;12.014;2023-03-21T00:33:30;97626.02;;;22.79;50.34
52653;BME280;39353;42.864;12.014;2023-03-21T00:36:12;97626.46;;;22.77;50.28
52653;BME280;39353;42.864;12.014;2023-03-21T00:38:39;97620.66;;;22.77;50.19
52653;BME280;39353;42.864;12.014;2023-03-21T00:41:10;97618.54;;;22.75;50.44
52653;BME280;39353;42.864;12.014;2023-03-21T00:43:37;97615.04;;;22.73;50.34
52653;BME280;39353;42.864;12.014;2023-03-21T00:46:20;97614.27;;;22.71;50.39
52653;BME280;39353;42.864;12.014;2023-03-21T00:48:47;97607.34;;;22.69;50.37
52653;BME280;39353;42.864;12.014;2023-03-21T00:51:28;97600.60;;;22.69;50.42
52653;BME280;39353;42.864;12.014;2023-03-21T00:54:11;97592.41;;;22.67;50.48
52653;BME280;39353;42.864;12.014;2023-03-21T00:56:39;97591.11;;;22.66;50.44
52653;BME280;39353;42.864;12.014;2023-03-21T00:59:19;97593.61;;;22.65;50.55
52653;BME280;39353;42.864;12.014;2023-03-21T01:01:47;97587.86;;;22.64;50.47
52653;BME280;39353;42.864;12.014;2023-03-21T01:04:28;97583.22;;;22.62;50.44
52653;BME280;39353;42.864;12.014;2023-03-21T01:07:09;97581.81;;;22.60;50.47
52653;BME280;39353;42.864;12.014;2023-03-21T01:09:37;97579.26;;;22.59;50.53
52653;BME280;39353;42.864;12.014;2023-03-21T01:12:05;97578.76;;;22.59;50.51
52653;BME280;39353;42.864;12.014;2023-03-21T01:14:46;97571.44;;;22.57;50.43
52653;BME280;39353;42.864;12.014;2023-03-21T01:17:13;97571.14;;;22.56;50.45
52653;BME280;39353;42.864;12.014;2023-03-21T01:19:54;97568.33;;;22.55;50.61
52653;BME280;39353;42.864;12.014;2023-03-21T01:22:35;97562.50;;;22.54;50.47
52653;BME280;39353;42.864;12.014;2023-03-21T01:25:17;97560.46;;;22.53;50.54
52653;BME280;39353;42.864;12.014;2023-03-21T01:27:44;97555.05;;;22.52;50.70
52653;BME280;39353;42.864;12.014;2023-03-21T01:30:12;97549.52;;;22.51;50.69
52653;BME280;39353;42.864;12.014;2023-03-21T01:32:53;97543.70;;;22.50;50.61
52653;BME280;39353;42.864;12.014;2023-03-21T01:35:21;97541.70;;;22.48;50.68
52653;BME280;39353;42.864;12.014;2023-03-21T01:37:49;97542.09;;;22.47;50.73
52653;BME280;39353;42.864;12.014;2023-03-21T01:40:21;97545.69;;;22.46;50.58
52653;BME280;39353;42.864;12.014;2023-03-21T01:42:50;97543.46;;;22.45;50.84
52653;BME280;39353;42.864;12.014;2023-03-21T01:48:59;97539.91;;;22.42;50.74
52653;BME280;39353;42.864;12.014;2023-03-21T01:51:49;97541.19;;;22.40;50.85
52653;BME280;39353;42.864;12.014;2023-03-21T01:54:24;97534.01;;;22.40;50.83
52653;BME280;39353;42.864;12.014;2023-03-21T01:57:17;97534.33;;;22.39;50.79
52653;BME280;39353;42.864;12.014;2023-03-21T02:00:06;97540.27;;;22.38;50.77
52653;BME280;39353;42.864;12.014;2023-03-21T02:02:48;97540.80;;;22.37;50.78
52653;BME280;39353;42.864;12.014;2023-03-21T02:05:59;97537.32;;;22.36;50.83
52653;BME280;39353;42.864;12.014;2023-03-21T02:08:31;97532.11;;;22.36;50.78
52653;BME280;39353;42.864;12.014;2023-03-21T02:11:14;97534.06;;;22.35;50.80
52653;BME280;39353;42.864;12.014;2023-03-21T02:13:57;97529.52;;;22.35;50.81
52653;BME280;39353;42.864;12.014;2023-03-21T02:27:45;97524.04;;;22.28;50.82
52653;BME280;39353;42.864;12.014;2023-03-21T02:30:47;97514.48;;;22.26;50.82
52653;BME280;39353;42.864;12.014;2023-03-21T02:36:43;97506.92;;;22.23;50.97
52653;BME280;39353;42.864;12.014;2023-03-21T02:45:15;97499.70;;;22.21;50.89
52653;BME280;39353;42.864;12.014;2023-03-21T02:47:50;97503.27;;;22.20;51.04
52653;BME280;39353;42.864;12.014;2023-03-21T02:50:38;97498.61;;;22.18;50.91
52653;BME280;39353;42.864;12.014;2023-03-21T02:53:13;97486.13;;;22.17;51.09
52653;BME280;39353;42.864;12.014;2023-03-21T02:55:45;97481.58;;;22.16;50.91
52653;BME280;39353;42.864;12.014;2023-03-21T02:58:31;97477.34;;;22.15;51.08
52653;BME280;39353;42.864;12.014;2023-03-21T03:01:12;97478.73;;;22.15;50.97
52653;BME280;39353;42.864;12.014;2023-03-21T03:03:41;97480.64;;;22.14;51.08
52653;BME280;39353;42.864;12.014;2023-03-21T03:06:31;97482.27;;;22.14;51.03
52653;BME280;39353;42.864;12.014;2023-03-21T03:09:39;97481.75;;;22.13;51.06
52653;BME280;39353;42.864;12.014;2023-03-21T03:15:05;97483.73;;;22.11;51.22
52653;BME280;39353;42.864;12.014;2023-03-21T03:20:53;97483.28;;;22.08;51.04
52653;BME280;39353;42.864;12.014;2023-03-21T03:26:22;97487.95;;;22.05;51.08
52653;BME280;39353;42.864;12.014;2023-03-21T03:29:00;97487.88;;;22.04;51.12
52653;BME280;39353;42.864;12.014;2023-03-21T03:31:34;97487.06;;;22.02;51.23
52653;BME280;39353;42.864;12.014;2023-03-21T03:34:22;97488.08;;;22.01;51.19
52653;BME280;39353;42.864;12.014;2023-03-21T03:37:12;97490.23;;;22.00;51.31
52653;BME280;39353;42.864;12.014;2023-03-21T03:39:50;97490.92;;;21.99;51.25
52653;BME280;39353;42.864;12.014;2023-03-21T03:42:29;97488.29;;;21.99;51.37
52653;BME280;39353;42.864;12.014;2023-03-21T03:45:36;97485.58;;;21.97;51.27
52653;BME280;39353;42.864;12.014;2023-03-21T03:48:07;97482.27;;;21.96;51.31
52653;BME280;39353;42.864;12.014;2023-03-21T03:50:50;97484.77;;;21.96;51.41
52653;BME280;39353;42.864;12.014;2023-03-21T03:53:32;97487.26;;;21.95;51.57
52653;BME280;39353;42.864;12.014;2023-03-21T03:56:06;97486.19;;;21.93;51.32
52653;BME280;39353;42.864;12.014;2023-03-21T03:58:37;97486.15;;;21.93;51.37
52653;BME280;39353;42.864;12.014;2023-03-21T04:01:06;97488.23;;;21.92;51.40
52653;BME280;39353;42.864;12.014;2023-03-21T04:03:36;97487.02;;;21.92;51.35
52653;BME280;39353;42.864;12.014;2023-03-21T04:06:20;97484.92;;;21.91;51.41
52653;BME280;39353;42.864;12.014;2023-03-21T04:09:02;97482.64;;;21.89;51.49
52653;BME280;39353;42.864;12.014;2023-03-21T04:11:31;97481.86;;;21.90;51.54
52653;BME280;39353;42.864;12.014;2023-03-21T04:13:58;97484.73;;;21.88;51.38
52653;BME280;39353;42.864;12.014;2023-03-21T04:16:41;97486.54;;;21.86;51.46
52653;BME280;39353;42.864;12.014;2023-03-21T04:19:08;97488.98;;;21.85;51.39
52653;BME280;39353;42.864;12.014;2023-03-21T04:21:35;97491.64;;;21.85;51.50
52653;BME280;39353;42.864;12.014;2023-03-21T04:24:16;97492.52;;;21.84;51.45
52653;BME280;39353;42.864;12.014;2023-03-21T04:26:58;97496.35;;;21.83;51.53
52653;BME280;39353;42.864;12.014;2023-03-21T04:29:43;97498.05;;;21.82;51.54
52653;BME280;39353;42.864;12.014;2023-03-21T04:32:28;97501.52;;;21.82;51.44
52653;BME280;39353;42.864;12.014;2023-03-21T04:35:02;97498.23;;;21.81;51.45
52653;BME280;39353;42.864;12.014;2023-03-21T04:37:43;97498.35;;;21.80;51.53
52653;BME280;39353;42.864;12.014;2023-03-21T04:40:28;97498.16;;;21.79;51.53
52653;BME280;39353;42.864;12.014;2023-03-21T04:43:09;97499.80;;;21.79;51.51
52653;BME280;39353;42.864;12.014;2023-03-21T04:45:53;97500.55;;;21.79;51.56
52653;BME280;39353;42.864;12.014;2023-03-21T04:48:36;97500.58;;;21.78;51.48
52653;BME280;39353;42.864;12.014;2023-03-21T04:51:18;97505.88;;;21.77;51.55
52653;BME280;39353;42.864;12.014;2023-03-21T04:54:01;97508.98;;;21.77;51.54
52653;BME280;39353;42.864;12.014;2023-03-21T04:56:29;97509.42;;;21.77;51.52
52653;BME280;39353;42.864;12.014;2023-03-21T04:59:14;97516.31;;;21.76;51.42
52653;BME280;39353;42.864;12.014;2023-03-21T05:01:42;97518.20;;;21.75;51.45
52653;BME280;39353;42.864;12.014;2023-03-21T05:04:11;97519.99;;;21.74;51.41
52653;BME280;39353;42.864;12.014;2023-03-21T05:06:54;97517.84;;;21.74;51.46
52653;BME280;39353;42.864;12.014;2023-03-21T05:09:22;97515.59;;;21.73;51.60
52653;BME280;39353;42.864;12.014;2023-03-21T05:11:50;97516.56;;;21.73;51.40
52653;BME280;39353;42.864;12.014;2023-03-21T05:14:23;97520.58;;;21.72;51.43
52653;BME280;39353;42.864;12.014;2023-03-21T05:16:52;97518.87;;;21.71;51.32
52653;BME280;39353;42.864;12.014;2023-03-21T05:19:34;97526.09;;;21.70;51.40
52653;BME280;39353;42.864;12.014;2023-03-21T05:22:15;97527.80;;;21.68;51.53
52653;BME280;39353;42.864;12.014;2023-03-21T05:24:58;97525.97;;;21.67;51.54
52653;BME280;39353;42.864;12.014;2023-03-21T05:27:41;97523.88;;;21.67;51.62
52653;BME280;39353;42.864;12.014;2023-03-21T05:30:14;97526.23;;;21.67;51.50
52653;BME280;39353;42.864;12.014;2023-03-21T05:32:42;97525.73;;;21.66;51.65
52653;BME280;39353;42.864;12.014;2023-03-21T05:35:25;97526.41;;;21.66;51.42
52653;BME280;39353;42.864;12.014;2023-03-21T05:37:53;97525.29;;;21.65;51.43
52653;BME280;39353;42.864;12.014;2023-03-21T05:40:36;97525.30;;;21.63;51.50
52653;BME280;39353;42.864;12.014;2023-03-21T05:43:17;97523.83;;;21.63;51.58
52653;BME280;39353;42.864;12.014;2023-03-21T05:45:58;97522.83;;;21.63;51.72
52653;BME280;39353;42.864;12.014;2023-03-21T05:48:43;97521.44;;;21.62;51.55
52653;BME280;39353;42.864;12.014;2023-03-21T05:51:12;97524.83;;;21.62;51.53
52653;BME280;39353;42.864;12.014;2023-03-21T05:53:40;97519.15;;;21.62;51.54
52653;BME280;39353;42.864;12.014;2023-03-21T05:56:22;97520.41;;;21.62;51.71
52653;BME280;39353;42.864;12.014;2023-03-21T05:58:50;97518.71;;;21.62;51.68
52653;BME280;39353;42.864;12.014;2023-03-21T06:01:19;97517.80;;;21.62;51.67
52653;BME280;39353;42.864;12.014;2023-03-21T06:03:51;97521.95;;;21.63;51.78
52653;BME280;39353;42.864;12.014;2023-03-21T06:06:22;97520.69;;;21.63;51.68
52653;BME280;39353;42.864;12.014;2023-03-21T06:08:57;97525.60;;;21.64;51.60
52653;BME280;39353;42.864;12.014;2023-03-21T06:11:44;97520.52;;;21.57;48.65
52653;BME280;39353;42.864;12.014;2023-03-21T06:14:13;97522.27;;;21.48;47.30
52653;BME280;39353;42.864;12.014;2023-03-21T06:16:42;97522.21;;;21.37;47.11
52653;BME280;39353;42.864;12.014;2023-03-21T06:19:11;97529.38;;;21.34;47.91
52653;BME280;39353;42.864;12.014;2023-03-21T06:22:07;97530.65;;;21.30;46.69
52653;BME280;39353;42.864;12.014;2023-03-21T06:24:38;97530.54;;;21.17;46.88
52653;BME280;39353;42.864;12.014;2023-03-21T06:27:06;97534.30;;;21.19;48.63
52653;BME280;39353;42.864;12.014;2023-03-21T06:29:47;97538.56;;;21.25;48.99
52653;BME280;39353;42.864;12.014;2023-03-21T06:32:29;97535.95;;;21.31;49.40
52653;BME280;39353;42.864;12.014;2023-03-21T06:35:01;97536.92;;;21.35;49.62
52653;BME280;39353;42.864;12.014;2023-03-21T06:37:28;97532.05;;;21.38;49.77
52653;BME280;39353;42.864;12.014;2023-03-21T06:40:10;97531.17;;;21.24;46.12
52653;BME280;39353;42.864;12.014;2023-03-21T06:42:53;97529.43;;;21.15;47.47
52653;BME280;39353;42.864;12.014;2023-03-21T06:45:20;97528.43;;;21.18;48.73
52653;BME280;39353;42.864;12.014;2023-03-21T06:47:47;97524.21;;;21.23;48.94
52653;BME280;39353;42.864;12.014;2023-03-21T06:50:39;97519.31;;;21.27;49.44
52653;BME280;39353;42.864;12.014;2023-03-21T06:53:07;97522.80;;;21.31;49.44
52653;BME280;39353;42.864;12.014;2023-03-21T06:55:57;97522.16;;;21.34;49.87
52653;BME280;39353;42.864;12.014;2023-03-21T06:58:39;97526.88;;;21.36;49.88
52653;BME280;39353;42.864;12.014;2023-03-21T07:01:22;97532.23;;;21.37;49.28
52653;BME280;39353;42.864;12.014;2023-03-21T07:04:10;97532.27;;;21.36;49.05
52653;BME280;39353;42.864;12.014;2023-03-21T07:06:51;97537.37;;;21.37;49.59
52653;BME280;39353;42.864;12.014;2023-03-21T07:09:20;97538.58;;;21.37;49.30
52653;BME280;39353;42.864;12.014;2023-03-21T07:12:05;97535.05;;;21.38;49.20
52653;BME280;39353;42.864;12.014;2023-03-21T07:14:53;97536.97;;;21.39;49.63
52653;BME280;39353;42.864;12.014;2023-03-21T07:17:20;97534.33;;;21.41;49.21
52653;BME280;39353;42.864;12.014;2023-03-21T07:19:50;97534.74;;;21.42;49.35
52653;BME280;39353;42.864;12.014;2023-03-21T07:22:34;97535.73;;;21.44;49.39
52653;BME280;39353;42.864;12.014;2023-03-21T07:25:03;97537.64;;;21.46;49.60
52653;BME280;39353;42.864;12.014;2023-03-21T07:27:44;97542.81;;;21.48;49.81
52653;BME280;39353;42.864;12.014;2023-03-21T07:30:12;97542.77;;;21.52;49.96
52653;BME280;39353;42.864;12.014;2023-03-21T07:32:55;97543.74;;;21.55;50.00
52653;BME280;39353;42.864;12.014;2023-03-21T07:35:22;97547.39;;;21.56;50.07
52653;BME280;39353;42.864;12.014;2023-03-21T07:37:50;97552.77;;;21.58;50.19
52653;BME280;39353;42.864;12.014;2023-03-21T07:40:18;97550.86;;;21.59;50.34
52653;BME280;39353;42.864;12.014;2023-03-21T07:43:00;97550.46;;;21.62;50.25
52653;BME280;39353;42.864;12.014;2023-03-21T07:45:31;97549.21;;;21.63;50.21
52653;BME280;39353;42.864;12.014;2023-03-21T07:48:13;97550.30;;;21.63;50.30
52653;BME280;39353;42.864;12.014;2023-03-21T07:50:55;97556.44;;;21.63;50.29
52653;BME280;39353;42.864;12.014;2023-03-21T07:53:37;97556.31;;;21.63;50.30
52653;BME280;39353;42.864;12.014;2023-03-21T07:56:09;97559.27;;;21.64;50.60
52653;BME280;39353;42.864;12.014;2023-03-21T07:58:50;97555.83;;;21.65;50.57
52653;BME280;39353;42.864;12.014;2023-03-21T08:01:17;97559.50;;;21.66;50.62
52653;BME280;39353;42.864;12.014;2023-03-21T08:03:58;97567.98;;;21.66;50.74
52653;BME280;39353;42.864;12.014;2023-03-21T08:06:28;97577.02;;;21.67;50.54
52653;BME280;39353;42.864;12.014;2023-03-21T08:09:00;97577.25;;;21.56;46.70
52653;BME280;39353;42.864;12.014;2023-03-21T08:11:27;97575.06;;;21.53;48.60
52653;BME280;39353;42.864;12.014;2023-03-21T08:13:58;97574.30;;;21.54;48.99
52653;BME280;39353;42.864;12.014;2023-03-21T08:16:26;97574.82;;;21.58;49.48
52653;BME280;39353;42.864;12.014;2023-03-21T08:18:54;97571.91;;;21.64;49.47
52653;BME280;39353;42.864;12.014;2023-03-21T08:21:36;97570.36;;;21.69;49.73
52653;BME280;39353;42.864;12.014;2023-03-21T08:24:05;97572.84;;;21.71;50.02
52653;BME280;39353;42.864;12.014;2023-03-21T08:26:32;97567.77;;;21.74;50.25
52653;BME280;39353;42.864;12.014;2023-03-21T08:29:00;97566.20;;;21.76;50.42
52653;BME280;39353;42.864;12.014;2023-03-21T08:31:27;97572.14;;;21.80;50.21
52653;BME280;39353;42.864;12.014;2023-03-21T08:33:54;97570.84;;;21.84;50.37
52653;BME280;39353;42.864;12.014;2023-03-21T08:36:36;97568.35;;;21.85;50.53
52653;BME280;39353;42.864;12.014;2023-03-21T08:39:17;97575.02;;;21.87;50.49
52653;BME280;39353;42.864;12.014;2023-03-21T08:41:45;97570.14;;;21.88;50.64
52653;BME280;39353;42.864;12.014;2023-03-21T08:44:12;97572.61;;;21.87;50.56
52653;BME280;39353;42.864;12.014;2023-03-21T08:46:39;97569.13;;;21.88;50.55
52653;BME280;39353;42.864;12.014;2023-03-21T08:49:06;97570.55;;;21.88;50.50
52653;BME280;39353;42.864;12.014;2023-03-21T08:51:47;97568.78;;;21.89;50.55
52653;BME280;39353;42.864;12.014;2023-03-21T08:54:28;97570.16;;;21.90;50.63
52653;BME280;39353;42.864;12.014;2023-03-21T08:57:10;97566.36;;;21.91;50.58
52653;BME280;39353;42.864;12.014;2023-03-21T08:59:37;97566.70;;;21.91;50.86
52653;BME280;39353;42.864;12.014;2023-03-21T09:02:06;97567.09;;;21.89;50.80
52653;BME280;39353;42.864;12.014;2023-03-21T09:04:33;97565.85;;;21.88;50.83
52653;BME280;39353;42.864;12.014;2023-03-21T09:07:00;97567.18;;;21.86;50.89
52653;BME280;39353;42.864;12.014;2023-03-21T09:09:44;97571.19;;;21.85;50.83
52653;BME280;39353;42.864;12.014;2023-03-21T09:12:11;97569.41;;;21.84;50.93
52653;BME280;39353;42.864;12.014;2023-03-21T09:14:52;97574.54;;;21.83;51.03
52653;BME280;39353;42.864;12.014;2023-03-21T09:17:33;97576.36;;;21.82;51.02
52653;BME280;39353;42.864;12.014;2023-03-21T09:20:01;97580.39;;;21.82;51.11
52653;BME280;39353;42.864;12.014;2023-03-21T09:22:38;97578.48;;;21.81;51.19
52653;BME280;39353;42.864;12.014;2023-03-21T09:25:19;97577.92;;;21.82;51.19
52653;BME280;39353;42.864;12.014;2023-03-21T09:27:47;97575.83;;;21.81;51.24
52653;BME280;39353;42.864;12.014;2023-03-21T09:30:28;97575.05;;;21.80;51.08
52653;BME280;39353;42.864;12.014;2023-03-21T09:33:10;97572.52;;;21.80;51.13
52653;BME280;39353;42.864;12.014;2023-03-21T09:36:03;97575.64;;;21.78;51.18
52653;BME280;39353;42.864;12.014;2023-03-21T09:38:52;97573.74;;;21.79;51.23
52653;BME280;39353;42.864;12.014;2023-03-21T09:47:23;97576.43;;;21.77;51.31
52653;BME280;39353;42.864;12.014;2023-03-21T09:50:00;97573.37;;;21.77;51.16
52653;BME280;39353;42.864;12.014;2023-03-21T09:52:57;97566.38;;;21.75;51.15
52653;BME280;39353;42.864;12.014;2023-03-21T09:55:40;97570.52;;;21.75;51.30
52653;BME280;39353;42.864;12.014;2023-03-21T09:58:41;97566.75;;;21.75;51.31
52653;BME280;39353;42.864;12.014;2023-03-21T10:01:28;97571.05;;;21.74;51.24
52653;BME280;39353;42.864;12.014;2023-03-21T10:04:04;97564.70;;;21.73;51.34
52653;BME280;39353;42.864;12.014;2023-03-21T10:06:38;97568.95;;;21.73;51.33
52653;BME280;39353;42.864;12.014;2023-03-21T10:09:24;97567.52;;;21.73;51.25
52653;BME280;39353;42.864;12.014;2023-03-21T10:11:57;97567.19;;;21.73;51.34
52653;BME280;39353;42.864;12.014;2023-03-21T10:14:49;97570.30;;;21.73;51.20
52653;BME280;39353;42.864;12.014;2023-03-21T10:17:33;97567.45;;;21.72;51.29
52653;BME280;39353;42.864;12.014;2023-03-21T10:20:23;97562.96;;;21.72;51.34
52653;BME280;39353;42.864;12.014;2023-03-21T10:23:11;97564.14;;;21.71;51.28
52653;BME280;39353;42.864;12.014;2023-03-21T10:25:48;97565.80;;;21.71;51.38
52653;BME280;39353;42.864;12.014;2023-03-21T10:28:21;97562.48;;;21.70;51.29
52653;BME280;39353;42.864;12.014;2023-03-21T10:30:59;97569.41;;;21.70;51.28
52653;BME280;39353;42.864;12.014;2023-03-21T10:33:47;97574.13;;;21.69;51.49
52653;BME280;39353;42.864;12.014;2023-03-21T10:36:21;97571.63;;;21.69;51.32
52653;BME280;39353;42.864;12.014;2023-03-21T10:41:21;97567.06;;;21.67;51.45
52653;BME280;39353;42.864;12.014;2023-03-21T10:44:28;97569.45;;;21.67;51.31
52653;BME280;39353;42.864;12.014;2023-03-21T10:47:10;97565.38;;;21.67;51.35
52653;BME280;39353;42.864;12.014;2023-03-21T10:49:53;97563.08;;;21.66;51.41
52653;BME280;39353;42.864;12.014;2023-03-21T10:52:37;97565.69;;;21.66;51.37
52653;BME280;39353;42.864;12.014;2023-03-21T10:55:28;97566.16;;;21.65;51.36
52653;BME280;39353;42.864;12.014;2023-03-21T10:58:18;97564.27;;;21.64;51.48
52653;BME280;39353;42.864;12.014;2023-03-21T11:00:55;97559.66;;;21.64;51.46
52653;BME280;39353;42.864;12.014;2023-03-21T11:03:31;97552.52;;;21.63;51.56
52653;BME280;39353;42.864;12.014;2023-03-21T11:09:41;97550.13;;;21.63;51.49
52653;BME280;39353;42.864;12.014;2023-03-21T11:12:04;97547.62;;;21.62;51.47
52653;BME280;39353;42.864;12.014;2023-03-21T11:14:41;97549.09;;;21.61;51.50
52653;BME280;39353;42.864;12.014;2023-03-21T11:20:00;97546.90;;;21.60;51.43
52653;BME280;39353;42.864;12.014;2023-03-21T11:22:43;97543.13;;;21.59;51.59
52653;BME280;39353;42.864;12.014;2023-03-21T11:25:37;97537.51;;;21.59;51.43
52653;BME280;39353;42.864;12.014;2023-03-21T11:28:24;97534.18;;;21.60;51.48
52653;BME280;39353;42.864;12.014;2023-03-21T11:30:59;97530.12;;;21.58;51.51
52653;BME280;39353;42.864;12.014;2023-03-21T11:33:50;97529.41;;;21.58;51.50
52653;BME280;39353;42.864;12.014;2023-03-21T11:38:50;97520.41;;;21.56;51.60
52653;BME280;39353;42.864;12.014;2023-03-21T11:41:33;97516.52;;;21.56;51.62
52653;BME280;39353;42.864;12.014;2023-03-21T11:44:32;97512.91;;;21.55;51.61
52653;BME280;39353;42.864;12.014;2023-03-21T11:47:14;97512.29;;;21.55;51.79
52653;BME280;39353;42.864;12.014;2023-03-21T11:49:56;97509.61;;;21.54;51.64
52653;BME280;39353;42.864;12.014;2023-03-21T11:52:37;97502.64;;;21.54;51.66
52653;BME280;39353;42.864;12.014;2023-03-21T12:03:49;97492.16;;;21.52;51.63
52653;BME280;39353;42.864;12.014;2023-03-21T12:06:33;97489.69;;;21.52;51.81
52653;BME280;39353;42.864;12.014;2023-03-21T12:09:08;97480.70;;;21.51;51.78
52653;BME280;39353;42.864;12.014;2023-03-21T12:23:49;97469.14;;;21.39;49.30
52653;BME280;39353;42.864;12.014;2023-03-21T12:26:28;97464.00;;;21.41;50.02
52653;BME280;39353;42.864;12.014;2023-03-21T12:41:27;97448.59;;;21.54;50.16
52653;BME280;39353;42.864;12.014;2023-03-21T12:44:21;97442.02;;;21.51;48.95
52653;BME280;39353;42.864;12.014;2023-03-21T12:47:04;97445.13;;;21.57;49.69
52653;BME280;39353;42.864;12.014;2023-03-21T12:50:14;97441.58;;;21.67;50.13
52653;BME280;39353;42.864;12.014;2023-03-21T12:53:17;97433.44;;;21.77;50.88
52653;BME280;39353;42.864;12.014;2023-03-21T12:56:11;97431.70;;;21.86;52.01
52653;BME280;39353;42.864;12.014;2023-03-21T13:01:43;97423.48;;;22.01;53.62
52653;BME280;39353;42.864;12.014;2023-03-21T13:04:39;97418.67;;;22.05;54.27
52653;BME280;39353;42.864;12.014;2023-03-21T13:07:13;97420.02;;;22.09;54.74
52653;BME280;39353;42.864;12.014;2023-03-21T13:09:57;97421.88;;;22.14;55.13
52653;BME280;39353;42.864;12.014;2023-03-21T13:20:42;97407.83;;;22.09;55.32
52653;BME280;39353;42.864;12.014;2023-03-21T13:23:10;97405.39;;;22.07;55.00
52653;BME280;39353;42.864;12.014;2023-03-21T13:25:49;97402.09;;;22.06;54.84
52653;BME280;39353;42.864;12.014;2023-03-21T13:28:34;97401.03;;;22.03;54.47
52653;BME280;39353;42.864;12.014;2023-03-21T13:31:26;97397.05;;;22.03;54.54
52653;BME280;39353;42.864;12.014;2023-03-21T13:33:58;97395.86;;;22.04;54.15
52653;BME280;39353;42.864;12.014;2023-03-21T13:36:40;97395.88;;;22.03;53.81
52653;BME280;39353;42.864;12.014;2023-03-21T13:39:27;97396.33;;;22.03;53.82
52653;BME280;39353;42.864;12.014;2023-03-21T13:42:02;97397.90;;;22.02;53.29
52653;BME280;39353;42.864;12.014;2023-03-21T13:44:52;97392.48;;;22.02;53.10
52653;BME280;39353;42.864;12.014;2023-03-21T13:47:40;97391.27;;;22.02;52.09
52653;BME280;39353;42.864;12.014;2023-03-21T13:50:51;97391.98;;;22.00;52.42
52653;BME280;39353;42.864;12.014;2023-03-21T13:53:39;97388.63;;;21.97;51.94
52653;BME280;39353;42.864;12.014;2023-03-21T13:56:23;97384.61;;;21.93;52.11
52653;BME280;39353;42.864;12.014;2023-03-21T13:59:10;97382.30;;;21.91;51.93
52653;BME280;39353;42.864;12.014;2023-03-21T14:01:39;97377.90;;;21.89;51.89
52653;BME280;39353;42.864;12.014;2023-03-21T14:04:26;97374.05;;;21.88;50.17
52653;BME280;39353;42.864;12.014;2023-03-21T14:07:20;97370.25;;;21.80;46.90
52653;BME280;39353;42.864;12.014;2023-03-21T14:10:28;97369.17;;;21.76;49.18
52653;BME280;39353;42.864;12.014;2023-03-21T14:13:18;97368.48;;;21.77;49.55
52653;BME280;39353;42.864;12.014;2023-03-21T14:16:08;97369.61;;;21.78;50.05
52653;BME280;39353;42.864;12.014;2023-03-21T14:18:58;97365.02;;;21.80;49.98
52653;BME280;39353;42.864;12.014;2023-03-21T14:21:29;97360.09;;;21.79;47.29
52653;BME280;39353;42.864;12.014;2023-03-21T14:24:04;97368.89;;;21.78;47.47
52653;BME280;39353;42.864;12.014;2023-03-21T14:26:35;97368.90;;;21.80;48.23
52653;BME280;39353;42.864;12.014;2023-03-21T14:29:38;97366.46;;;21.83;48.94
52653;BME280;39353;42.864;12.014;2023-03-21T14:32:24;97360.82;;;21.85;49.40
52653;BME280;39353;42.864;12.014;2023-03-21T14:34:58;97357.95;;;21.86;49.50
52653;BME280;39353;42.864;12.014;2023-03-21T14:37:46;97357.90;;;21.89;49.60
52653;BME280;39353;42.864;12.014;2023-03-21T14:40:28;97355.90;;;21.94;49.88
52653;BME280;39353;42.864;12.014;2023-03-21T14:43:10;97349.80;;;21.97;49.86
52653;BME280;39353;42.864;12.014;2023-03-21T14:45:41;97351.33;;;22.00;49.72
52653;BME280;39353;42.864;12.014;2023-03-21T14:48:33;97347.77;;;22.02;49.87
52653;BME280;39353;42.864;12.014;2023-03-21T14:51:06;97349.04;;;22.04;49.92
52653;BME280;39353;42.864;12.014;2023-03-21T14:53:50;97349.62;;;22.04;49.87
52653;BME280;39353;42.864;12.014;2023-03-21T14:56:35;97346.42;;;22.02;49.73
52653;BME280;39353;42.864;12.014;2023-03-21T14:59:05;97345.01;;;22.01;48.48
52653;BME280;39353;42.864;12.014;2023-03-21T15:01:36;97340.91;;;21.93;47.28
52653;BME280;39353;42.864;12.014;2023-03-21T15:04:05;97341.92;;;21.93;48.39
52653;BME280;39353;42.864;12.014;2023-03-21T15:06:52;97342.99;;;21.92;48.90
52653;BME280;39353;42.864;12.014;2023-03-21T15:09:23;97344.72;;;21.91;49.29
52653;BME280;39353;42.864;12.014;2023-03-21T15:11:54;97343.49;;;21.92;49.65
52653;BME280;39353;42.864;12.014;2023-03-21T15:14:37;97345.52;;;21.92;49.65
52653;BME280;39353;42.864;12.014;2023-03-21T15:17:08;97340.11;;;21.93;49.85
52653;BME280;39353;42.864;12.014;2023-03-21T15:19:50;97341.02;;;21.94;50.06
52653;BME280;39353;42.864;12.014;2023-03-21T15:22:37;97343.89;;;21.95;50.26